sensor_id;sensor_type;location;lat;lon;timestamp;temperature;humidity
34768;DHT22;21755;43.608;1.236;2023-07-13T00:01:20;21.80;47.60
34768;DHT22;21755;43.608;1.236;2023-07-13T00:03:48;21.90;39.40
34768;DHT22;21755;43.608;1.236;2023-07-13T00:06:14;22.00;4.20
34768;DHT22;21755;43.608;1.236;2023-07-13T00:08:40;22.10;17.40
34768;DHT22;21755;43.608;1.236;2023-07-13T00:11:06;21.90;11.70
34768;DHT22;21755;43.608;1.236;2023-07-13T00:13:32;21.80;22.70
34768;DHT22;21755;43.608;1.236;2023-07-13T00:15:58;21.70;31.20
34768;DHT22;21755;43.608;1.236;2023-07-13T00:18:25;21.70;61.20
34768;DHT22;21755;43.608;1.236;2023-07-13T00:20:51;21.60;32.50
34768;DHT22;21755;43.608;1.236;2023-07-13T00:23:17;21.50;24.80
34768;DHT22;21755;43.608;1.236;2023-07-13T00:25:43;21.50;23.50
34768;DHT22;21755;43.608;1.236;2023-07-13T00:28:08;21.50;26.10
34768;DHT22;21755;43.608;1.236;2023-07-13T00:30:34;21.40;28.20
34768;DHT22;21755;43.608;1.236;2023-07-13T00:33:00;21.50;42.40
34768;DHT22;21755;43.608;1.236;2023-07-13T00:35:27;21.50;23.10
34768;DHT22;21755;43.608;1.236;2023-07-13T00:37:55;21.40;16.40
34768;DHT22;21755;43.608;1.236;2023-07-13T00:40:21;21.50;17.50
34768;DHT22;21755;43.608;1.236;2023-07-13T00:42:47;21.50;21.60
34768;DHT22;21755;43.608;1.236;2023-07-13T00:47:40;21.40;19.30
34768;DHT22;21755;43.608;1.236;2023-07-13T00:50:08;21.40;20.20
34768;DHT22;21755;43.608;1.236;2023-07-13T00:52:37;21.40;18.10
34768;DHT22;21755;43.608;1.236;2023-07-13T00:55:04;21.60;45.40
34768;DHT22;21755;43.608;1.236;2023-07-13T00:57:30;21.70;28.60
34768;DHT22;21755;43.608;1.236;2023-07-13T00:59:59;21.90;46.60
34768;DHT22;21755;43.608;1.236;2023-07-13T01:02:33;21.90;23.40
34768;DHT22;21755;43.608;1.236;2023-07-13T01:04:59;21.80;53.30
34768;DHT22;21755;43.608;1.236;2023-07-13T01:07:27;21.80;26.70
34768;DHT22;21755;43.608;1.236;2023-07-13T01:09:53;22.00;35.20
34768;DHT22;21755;43.608;1.236;2023-07-13T01:12:19;21.90;25.90
34768;DHT22;21755;43.608;1.236;2023-07-13T01:14:45;21.80;64.60
34768;DHT22;21755;43.608;1.236;2023-07-13T01:17:11;21.70;21.20
34768;DHT22;21755;43.608;1.236;2023-07-13T01:19:43;21.60;19.20
34768;DHT22;21755;43.608;1.236;2023-07-13T01:22:13;21.50;19.70
34768;DHT22;21755;43.608;1.236;2023-07-13T01:24:42;21.40;12.40
34768;DHT22;21755;43.608;1.236;2023-07-13T01:27:09;21.30;10.50
34768;DHT22;21755;43.608;1.236;2023-07-13T01:29:37;21.40;5.00
34768;DHT22;21755;43.608;1.236;2023-07-13T01:32:13;21.40;45.20
34768;DHT22;21755;43.608;1.236;2023-07-13T01:34:39;21.40;32.80
34768;DHT22;21755;43.608;1.236;2023-07-13T01:37:09;21.30;25.00
34768;DHT22;21755;43.608;1.236;2023-07-13T01:39:35;21.20;30.00
34768;DHT22;21755;43.608;1.236;2023-07-13T01:42:01;21.10;50.70
34768;DHT22;21755;43.608;1.236;2023-07-13T01:44:27;21.10;65.00
34768;DHT22;21755;43.608;1.236;2023-07-13T01:46:53;21.10;50.10
34768;DHT22;21755;43.608;1.236;2023-07-13T01:49:19;21.00;45.60
34768;DHT22;21755;43.608;1.236;2023-07-13T01:51:45;20.80;53.60
34768;DHT22;21755;43.608;1.236;2023-07-13T01:54:11;20.70;58.80
34768;DHT22;21755;43.608;1.236;2023-07-13T01:56:37;20.70;62.40
34768;DHT22;21755;43.608;1.236;2023-07-13T01:59:04;20.70;57.70
34768;DHT22;21755;43.608;1.236;2023-07-13T02:01:30;20.60;56.60
34768;DHT22;21755;43.608;1.236;2023-07-13T02:03:56;20.50;53.30
34768;DHT22;21755;43.608;1.236;2023-07-13T02:06:22;20.50;55.20
34768;DHT22;21755;43.608;1.236;2023-07-13T02:08:48;20.40;53.90
34768;DHT22;21755;43.608;1.236;2023-07-13T02:11:14;20.40;58.20
34768;DHT22;21755;43.608;1.236;2023-07-13T02:13:40;20.40;47.00
34768;DHT22;21755;43.608;1.236;2023-07-13T02:16:06;20.30;42.30
34768;DHT22;21755;43.608;1.236;2023-07-13T02:18:32;20.30;26.80
34768;DHT22;21755;43.608;1.236;2023-07-13T02:20:58;20.20;25.30
34768;DHT22;21755;43.608;1.236;2023-07-13T02:23:24;20.30;7.60
34768;DHT22;21755;43.608;1.236;2023-07-13T02:25:55;20.40;34.20
34768;DHT22;21755;43.608;1.236;2023-07-13T02:28:21;20.20;1.00
34768;DHT22;21755;43.608;1.236;2023-07-13T02:30:47;20.20;1.00
34768;DHT22;21755;43.608;1.236;2023-07-13T02:33:13;20.10;1.00
34768;DHT22;21755;43.608;1.236;2023-07-13T02:35:39;20.10;17.10
34768;DHT22;21755;43.608;1.236;2023-07-13T02:38:05;20.20;55.00
34768;DHT22;21755;43.608;1.236;2023-07-13T02:40:33;20.40;47.90
34768;DHT22;21755;43.608;1.236;2023-07-13T02:42:59;20.20;19.70
34768;DHT22;21755;43.608;1.236;2023-07-13T02:45:25;20.30;20.20
34768;DHT22;21755;43.608;1.236;2023-07-13T02:47:52;20.10;8.00
34768;DHT22;21755;43.608;1.236;2023-07-13T02:50:18;20.00;15.20
34768;DHT22;21755;43.608;1.236;2023-07-13T02:52:44;20.10;19.10
34768;DHT22;21755;43.608;1.236;2023-07-13T02:55:10;20.10;68.10
34768;DHT22;21755;43.608;1.236;2023-07-13T02:57:36;20.10;41.20
34768;DHT22;21755;43.608;1.236;2023-07-13T03:00:03;20.10;1.00
34768;DHT22;21755;43.608;1.236;2023-07-13T03:02:32;19.90;1.00
34768;DHT22;21755;43.608;1.236;2023-07-13T03:04:58;20.00;1.00
34768;DHT22;21755;43.608;1.236;2023-07-13T03:07:24;19.80;1.00
34768;DHT22;21755;43.608;1.236;2023-07-13T03:09:58;19.80;49.00
34768;DHT22;21755;43.608;1.236;2023-07-13T03:12:24;19.70;1.00
34768;DHT22;21755;43.608;1.236;2023-07-13T03:14:51;19.60;1.00
34768;DHT22;21755;43.608;1.236;2023-07-13T03:17:17;19.50;1.00
34768;DHT22;21755;43.608;1.236;2023-07-13T03:19:43;19.40;1.00
34768;DHT22;21755;43.608;1.236;2023-07-13T03:22:09;19.30;1.00
34768;DHT22;21755;43.608;1.236;2023-07-13T03:24:35;19.30;1.00
34768;DHT22;21755;43.608;1.236;2023-07-13T03:27:04;19.30;1.00
34768;DHT22;21755;43.608;1.236;2023-07-13T03:29:30;19.20;1.00
34768;DHT22;21755;43.608;1.236;2023-07-13T03:31:56;19.30;1.00
34768;DHT22;21755;43.608;1.236;2023-07-13T03:34:22;19.30;1.00
34768;DHT22;21755;43.608;1.236;2023-07-13T03:36:48;19.30;1.00
34768;DHT22;21755;43.608;1.236;2023-07-13T03:39:14;19.30;1.00
34768;DHT22;21755;43.608;1.236;2023-07-13T03:41:40;19.20;1.00
34768;DHT22;21755;43.608;1.236;2023-07-13T03:44:07;19.20;1.00
34768;DHT22;21755;43.608;1.236;2023-07-13T03:46:32;19.30;1.00
34768;DHT22;21755;43.608;1.236;2023-07-13T03:48:59;19.30;1.00
34768;DHT22;21755;43.608;1.236;2023-07-13T03:51:25;19.50;25.60
34768;DHT22;21755;43.608;1.236;2023-07-13T03:53:51;19.80;1.00
34768;DHT22;21755;43.608;1.236;2023-07-13T03:56:18;19.50;99.90
34768;DHT22;21755;43.608;1.236;2023-07-13T03:58:47;19.30;1.00
34768;DHT22;21755;43.608;1.236;2023-07-13T04:01:14;19.40;1.00
34768;DHT22;21755;43.608;1.236;2023-07-13T04:03:42;19.50;1.00
34768;DHT22;21755;43.608;1.236;2023-07-13T04:06:16;19.30;1.00
34768;DHT22;21755;43.608;1.236;2023-07-13T04:08:48;19.60;1.00
34768;DHT22;21755;43.608;1.236;2023-07-13T04:11:14;19.70;1.00
34768;DHT22;21755;43.608;1.236;2023-07-13T04:13:40;19.90;1.00
34768;DHT22;21755;43.608;1.236;2023-07-13T04:16:06;19.70;1.00
34768;DHT22;21755;43.608;1.236;2023-07-13T04:18:32;19.60;1.00
34768;DHT22;21755;43.608;1.236;2023-07-13T04:20:58;19.30;1.00
34768;DHT22;21755;43.608;1.236;2023-07-13T04:23:24;19.20;1.00
34768;DHT22;21755;43.608;1.236;2023-07-13T04:25:53;19.00;1.00
34768;DHT22;21755;43.608;1.236;2023-07-13T04:28:21;19.00;1.00
34768;DHT22;21755;43.608;1.236;2023-07-13T04:30:46;19.00;1.00
34768;DHT22;21755;43.608;1.236;2023-07-13T04:33:12;19.40;1.00
34768;DHT22;21755;43.608;1.236;2023-07-13T04:35:38;19.30;1.00
34768;DHT22;21755;43.608;1.236;2023-07-13T04:38:04;19.20;1.00
34768;DHT22;21755;43.608;1.236;2023-07-13T04:40:31;19.30;1.00
34768;DHT22;21755;43.608;1.236;2023-07-13T04:42:57;19.30;1.00
34768;DHT22;21755;43.608;1.236;2023-07-13T04:45:24;19.30;1.00
34768;DHT22;21755;43.608;1.236;2023-07-13T04:47:50;19.30;1.00
34768;DHT22;21755;43.608;1.236;2023-07-13T04:50:16;19.10;1.00
34768;DHT22;21755;43.608;1.236;2023-07-13T04:52:46;19.00;1.00
34768;DHT22;21755;43.608;1.236;2023-07-13T04:55:13;18.90;1.00
34768;DHT22;21755;43.608;1.236;2023-07-13T04:57:39;19.00;1.00
34768;DHT22;21755;43.608;1.236;2023-07-13T05:00:05;19.00;1.00
34768;DHT22;21755;43.608;1.236;2023-07-13T05:02:33;19.00;1.00
34768;DHT22;21755;43.608;1.236;2023-07-13T05:05:00;19.00;1.00
34768;DHT22;21755;43.608;1.236;2023-07-13T05:07:26;18.90;1.00
34768;DHT22;21755;43.608;1.236;2023-07-13T05:09:52;19.00;1.00
34768;DHT22;21755;43.608;1.236;2023-07-13T05:12:18;19.00;1.00
34768;DHT22;21755;43.608;1.236;2023-07-13T05:14:44;19.00;1.00
34768;DHT22;21755;43.608;1.236;2023-07-13T05:17:10;18.90;1.00
34768;DHT22;21755;43.608;1.236;2023-07-13T05:19:36;19.00;1.00
34768;DHT22;21755;43.608;1.236;2023-07-13T05:22:02;19.00;1.00
34768;DHT22;21755;43.608;1.236;2023-07-13T05:24:29;19.00;1.00
34768;DHT22;21755;43.608;1.236;2023-07-13T05:26:55;19.00;1.00
34768;DHT22;21755;43.608;1.236;2023-07-13T05:29:22;19.00;1.00
34768;DHT22;21755;43.608;1.236;2023-07-13T05:31:49;19.00;1.00
34768;DHT22;21755;43.608;1.236;2023-07-13T05:34:15;19.00;1.00
34768;DHT22;21755;43.608;1.236;2023-07-13T05:36:41;19.00;1.00
34768;DHT22;21755;43.608;1.236;2023-07-13T05:39:07;19.00;1.00
34768;DHT22;21755;43.608;1.236;2023-07-13T05:41:33;19.00;1.00
34768;DHT22;21755;43.608;1.236;2023-07-13T05:43:59;19.00;1.00
34768;DHT22;21755;43.608;1.236;2023-07-13T05:46:25;19.00;1.00
34768;DHT22;21755;43.608;1.236;2023-07-13T05:48:51;19.00;1.00
34768;DHT22;21755;43.608;1.236;2023-07-13T05:51:17;19.00;1.00
34768;DHT22;21755;43.608;1.236;2023-07-13T05:53:43;19.10;1.00
34768;DHT22;21755;43.608;1.236;2023-07-13T05:56:09;19.10;1.00
34768;DHT22;21755;43.608;1.236;2023-07-13T05:58:35;19.00;1.00
34768;DHT22;21755;43.608;1.236;2023-07-13T06:01:06;19.10;1.00
34768;DHT22;21755;43.608;1.236;2023-07-13T06:03:33;19.00;1.00
34768;DHT22;21755;43.608;1.236;2023-07-13T06:05:59;19.00;1.00
34768;DHT22;21755;43.608;1.236;2023-07-13T06:08:28;19.00;1.00
34768;DHT22;21755;43.608;1.236;2023-07-13T06:10:58;19.10;1.00
34768;DHT22;21755;43.608;1.236;2023-07-13T06:13:26;19.10;1.00
34768;DHT22;21755;43.608;1.236;2023-07-13T06:15:52;19.10;1.00
34768;DHT22;21755;43.608;1.236;2023-07-13T06:18:18;19.10;1.00
34768;DHT22;21755;43.608;1.236;2023-07-13T06:20:44;19.10;1.00
34768;DHT22;21755;43.608;1.236;2023-07-13T06:23:10;19.10;1.00
34768;DHT22;21755;43.608;1.236;2023-07-13T06:25:36;19.20;1.00
34768;DHT22;21755;43.608;1.236;2023-07-13T06:28:02;19.20;1.00
34768;DHT22;21755;43.608;1.236;2023-07-13T06:30:28;19.20;1.00
34768;DHT22;21755;43.608;1.236;2023-07-13T06:32:54;19.30;1.00
34768;DHT22;21755;43.608;1.236;2023-07-13T06:35:20;19.40;1.00
34768;DHT22;21755;43.608;1.236;2023-07-13T06:37:46;19.50;1.00
34768;DHT22;21755;43.608;1.236;2023-07-13T06:40:12;19.40;1.00
34768;DHT22;21755;43.608;1.236;2023-07-13T06:42:38;19.40;1.00
34768;DHT22;21755;43.608;1.236;2023-07-13T06:45:05;19.30;1.00
34768;DHT22;21755;43.608;1.236;2023-07-13T06:47:31;19.30;1.00
34768;DHT22;21755;43.608;1.236;2023-07-13T06:49:57;19.40;1.00
34768;DHT22;21755;43.608;1.236;2023-07-13T06:52:23;19.40;1.00
34768;DHT22;21755;43.608;1.236;2023-07-13T06:54:49;19.50;99.90
34768;DHT22;21755;43.608;1.236;2023-07-13T06:57:15;19.40;99.90
34768;DHT22;21755;43.608;1.236;2023-07-13T06:59:41;19.50;99.90
34768;DHT22;21755;43.608;1.236;2023-07-13T07:02:10;19.60;99.90
34768;DHT22;21755;43.608;1.236;2023-07-13T07:04:36;19.60;99.90
34768;DHT22;21755;43.608;1.236;2023-07-13T07:07:02;19.70;99.90
34768;DHT22;21755;43.608;1.236;2023-07-13T07:09:28;19.70;99.90
34768;DHT22;21755;43.608;1.236;2023-07-13T07:11:55;19.80;99.90
34768;DHT22;21755;43.608;1.236;2023-07-13T07:14:21;19.80;99.90
34768;DHT22;21755;43.608;1.236;2023-07-13T07:16:47;19.90;99.90
34768;DHT22;21755;43.608;1.236;2023-07-13T07:19:13;20.00;99.90
34768;DHT22;21755;43.608;1.236;2023-07-13T07:21:39;20.00;99.90
34768;DHT22;21755;43.608;1.236;2023-07-13T07:24:05;20.00;99.90
34768;DHT22;21755;43.608;1.236;2023-07-13T07:26:31;20.10;99.90
34768;DHT22;21755;43.608;1.236;2023-07-13T07:28:57;20.20;99.90
34768;DHT22;21755;43.608;1.236;2023-07-13T07:31:23;20.30;99.90
34768;DHT22;21755;43.608;1.236;2023-07-13T07:33:49;20.30;99.90
34768;DHT22;21755;43.608;1.236;2023-07-13T07:36:16;20.40;99.90
34768;DHT22;21755;43.608;1.236;2023-07-13T07:38:43;20.30;1.00
34768;DHT22;21755;43.608;1.236;2023-07-13T07:41:09;20.20;1.00
34768;DHT22;21755;43.608;1.236;2023-07-13T07:43:36;20.20;22.60
34768;DHT22;21755;43.608;1.236;2023-07-13T07:46:03;20.30;99.90
34768;DHT22;21755;43.608;1.236;2023-07-13T07:48:29;20.40;99.90
34768;DHT22;21755;43.608;1.236;2023-07-13T07:50:55;20.50;39.20
34768;DHT22;21755;43.608;1.236;2023-07-13T07:53:21;20.60;1.00
34768;DHT22;21755;43.608;1.236;2023-07-13T07:55:46;20.70;1.00
34768;DHT22;21755;43.608;1.236;2023-07-13T07:58:13;20.80;1.00
34768;DHT22;21755;43.608;1.236;2023-07-13T08:00:39;21.00;53.80
34768;DHT22;21755;43.608;1.236;2023-07-13T08:03:06;21.40;99.90
34768;DHT22;21755;43.608;1.236;2023-07-13T08:05:32;21.50;99.90
34768;DHT22;21755;43.608;1.236;2023-07-13T08:08:00;21.70;97.00
34768;DHT22;21755;43.608;1.236;2023-07-13T08:10:26;21.90;99.90
34768;DHT22;21755;43.608;1.236;2023-07-13T08:12:52;21.90;1.00
34768;DHT22;21755;43.608;1.236;2023-07-13T08:15:18;21.80;29.50
34768;DHT22;21755;43.608;1.236;2023-07-13T08:17:47;22.00;1.00
34768;DHT22;21755;43.608;1.236;2023-07-13T08:20:13;22.20;99.90
34768;DHT22;21755;43.608;1.236;2023-07-13T08:22:39;22.50;99.90
34768;DHT22;21755;43.608;1.236;2023-07-13T08:25:06;22.50;1.00
34768;DHT22;21755;43.608;1.236;2023-07-13T08:27:32;22.60;86.20
34768;DHT22;21755;43.608;1.236;2023-07-13T08:29:58;22.80;12.90
34768;DHT22;21755;43.608;1.236;2023-07-13T08:32:24;22.40;99.90
34768;DHT22;21755;43.608;1.236;2023-07-13T08:34:51;21.90;1.00
34768;DHT22;21755;43.608;1.236;2023-07-13T08:37:18;22.10;99.90
34768;DHT22;21755;43.608;1.236;2023-07-13T08:39:45;22.40;99.90
34768;DHT22;21755;43.608;1.236;2023-07-13T08:42:39;22.50;99.90
34768;DHT22;21755;43.608;1.236;2023-07-13T08:50:46;23.20;1.00
34768;DHT22;21755;43.608;1.236;2023-07-13T08:53:14;23.10;1.00
34768;DHT22;21755;43.608;1.236;2023-07-13T08:55:41;23.50;1.00
34768;DHT22;21755;43.608;1.236;2023-07-13T08:58:12;23.40;1.00
34768;DHT22;21755;43.608;1.236;2023-07-13T09:03:55;23.30;99.90
34768;DHT22;21755;43.608;1.236;2023-07-13T09:06:31;23.40;99.90
34768;DHT22;21755;43.608;1.236;2023-07-13T09:09:04;23.50;97.90
34768;DHT22;21755;43.608;1.236;2023-07-13T09:11:49;23.50;1.00
34768;DHT22;21755;43.608;1.236;2023-07-13T09:14:33;23.70;99.90
34768;DHT22;21755;43.608;1.236;2023-07-13T09:17:08;23.80;1.00
34768;DHT22;21755;43.608;1.236;2023-07-13T09:19:36;24.10;99.90
34768;DHT22;21755;43.608;1.236;2023-07-13T09:22:04;24.40;99.90
34768;DHT22;21755;43.608;1.236;2023-07-13T09:24:38;24.10;99.90
34768;DHT22;21755;43.608;1.236;2023-07-13T09:27:29;23.80;99.90
34768;DHT22;21755;43.608;1.236;2023-07-13T09:30:34;23.60;99.90
34768;DHT22;21755;43.608;1.236;2023-07-13T09:33:03;23.70;1.00
34768;DHT22;21755;43.608;1.236;2023-07-13T09:35:30;23.60;1.00
34768;DHT22;21755;43.608;1.236;2023-07-13T09:38:12;23.60;1.00
34768;DHT22;21755;43.608;1.236;2023-07-13T09:43:21;23.60;99.90
34768;DHT22;21755;43.608;1.236;2023-07-13T09:45:48;23.70;99.90
34768;DHT22;21755;43.608;1.236;2023-07-13T09:48:15;24.00;1.00
34768;DHT22;21755;43.608;1.236;2023-07-13T09:50:43;24.20;99.90
34768;DHT22;21755;43.608;1.236;2023-07-13T09:53:15;24.00;1.00
34768;DHT22;21755;43.608;1.236;2023-07-13T09:55:43;24.00;99.90
34768;DHT22;21755;43.608;1.236;2023-07-13T09:58:12;24.20;1.00
34768;DHT22;21755;43.608;1.236;2023-07-13T10:00:40;24.30;99.90
34768;DHT22;21755;43.608;1.236;2023-07-13T10:03:20;24.00;99.90
34768;DHT22;21755;43.608;1.236;2023-07-13T10:05:49;23.90;99.90
34768;DHT22;21755;43.608;1.236;2023-07-13T10:08:22;24.00;99.90
34768;DHT22;21755;43.608;1.236;2023-07-13T10:10:54;23.80;99.90
34768;DHT22;21755;43.608;1.236;2023-07-13T10:13:44;23.60;1.00
34768;DHT22;21755;43.608;1.236;2023-07-13T10:16:11;23.50;99.90
34768;DHT22;21755;43.608;1.236;2023-07-13T10:18:47;23.50;99.90
34768;DHT22;21755;43.608;1.236;2023-07-13T10:21:20;23.50;1.00
34768;DHT22;21755;43.608;1.236;2023-07-13T10:23:48;23.60;1.00
34768;DHT22;21755;43.608;1.236;2023-07-13T10:26:26;23.70;99.90
34768;DHT22;21755;43.608;1.236;2023-07-13T10:28:55;23.90;99.90
34768;DHT22;21755;43.608;1.236;2023-07-13T10:31:23;23.80;1.00
34768;DHT22;21755;43.608;1.236;2023-07-13T10:33:49;24.20;99.90
34768;DHT22;21755;43.608;1.236;2023-07-13T10:36:45;24.50;99.90
34768;DHT22;21755;43.608;1.236;2023-07-13T10:39:27;24.60;99.90
34768;DHT22;21755;43.608;1.236;2023-07-13T10:41:58;24.70;99.90
34768;DHT22;21755;43.608;1.236;2023-07-13T10:44:28;24.60;99.90
34768;DHT22;21755;43.608;1.236;2023-07-13T10:47:06;24.60;99.90
34768;DHT22;21755;43.608;1.236;2023-07-13T10:49:34;24.60;99.90
34768;DHT22;21755;43.608;1.236;2023-07-13T10:52:02;24.40;99.90
34768;DHT22;21755;43.608;1.236;2023-07-13T10:57:14;24.20;99.90
34768;DHT22;21755;43.608;1.236;2023-07-13T10:59:43;24.40;99.90
34768;DHT22;21755;43.608;1.236;2023-07-13T11:02:25;24.60;99.90
34768;DHT22;21755;43.608;1.236;2023-07-13T11:04:54;25.10;99.90
34768;DHT22;21755;43.608;1.236;2023-07-13T11:07:22;24.90;99.90
34768;DHT22;21755;43.608;1.236;2023-07-13T11:09:52;24.90;99.90
34768;DHT22;21755;43.608;1.236;2023-07-13T11:17:49;25.50;99.90
34768;DHT22;21755;43.608;1.236;2023-07-13T11:25:28;25.80;91.20
34768;DHT22;21755;43.608;1.236;2023-07-13T11:30:46;25.10;99.90
34768;DHT22;21755;43.608;1.236;2023-07-13T11:38:37;25.20;99.90
34768;DHT22;21755;43.608;1.236;2023-07-13T11:41:07;25.30;99.90
34768;DHT22;21755;43.608;1.236;2023-07-13T11:43:36;25.30;96.20
34768;DHT22;21755;43.608;1.236;2023-07-13T11:46:14;25.50;95.90
34768;DHT22;21755;43.608;1.236;2023-07-13T11:48:47;25.60;99.90
34768;DHT22;21755;43.608;1.236;2023-07-13T11:51:33;25.50;89.70
34768;DHT22;21755;43.608;1.236;2023-07-13T11:54:06;25.30;92.30
34768;DHT22;21755;43.608;1.236;2023-07-13T11:56:33;25.40;90.90
34768;DHT22;21755;43.608;1.236;2023-07-13T11:59:05;25.30;96.20
34768;DHT22;21755;43.608;1.236;2023-07-13T12:01:32;25.10;90.00
34768;DHT22;21755;43.608;1.236;2023-07-13T12:04:03;25.20;89.80
34768;DHT22;21755;43.608;1.236;2023-07-13T12:06:34;25.40;96.60
34768;DHT22;21755;43.608;1.236;2023-07-13T12:09:09;25.50;99.90
34768;DHT22;21755;43.608;1.236;2023-07-13T12:11:40;25.40;90.60
34768;DHT22;21755;43.608;1.236;2023-07-13T12:14:15;25.40;99.90
34768;DHT22;21755;43.608;1.236;2023-07-13T12:16:42;25.30;99.90
34768;DHT22;21755;43.608;1.236;2023-07-13T12:19:27;25.30;99.90
34768;DHT22;21755;43.608;1.236;2023-07-13T12:21:55;25.30;93.60
34768;DHT22;21755;43.608;1.236;2023-07-13T12:24:22;25.30;99.90
34768;DHT22;21755;43.608;1.236;2023-07-13T12:29:53;25.20;99.00
34768;DHT22;21755;43.608;1.236;2023-07-13T12:32:25;25.50;99.90
34768;DHT22;21755;43.608;1.236;2023-07-13T12:35:15;25.50;91.70
34768;DHT22;21755;43.608;1.236;2023-07-13T12:37:46;25.50;99.10
34768;DHT22;21755;43.608;1.236;2023-07-13T12:40:20;25.10;91.50
34768;DHT22;21755;43.608;1.236;2023-07-13T12:42:49;25.40;83.90
34768;DHT22;21755;43.608;1.236;2023-07-13T12:45:21;26.00;99.90
34768;DHT22;21755;43.608;1.236;2023-07-13T12:47:53;26.30;31.20
34768;DHT22;21755;43.608;1.236;2023-07-13T12:50:23;26.30;14.90
34768;DHT22;21755;43.608;1.236;2023-07-13T12:53:02;26.10;57.90
34768;DHT22;21755;43.608;1.236;2023-07-13T12:55:29;25.90;51.40
34768;DHT22;21755;43.608;1.236;2023-07-13T12:58:02;26.10;57.10
34768;DHT22;21755;43.608;1.236;2023-07-13T13:00:35;26.20;20.60
34768;DHT22;21755;43.608;1.236;2023-07-13T13:03:15;26.40;74.10
34768;DHT22;21755;43.608;1.236;2023-07-13T13:05:44;26.10;31.30
34768;DHT22;21755;43.608;1.236;2023-07-13T13:08:14;25.80;24.00
34768;DHT22;21755;43.608;1.236;2023-07-13T13:10:40;26.00;25.90
34768;DHT22;21755;43.608;1.236;2023-07-13T13:13:06;25.80;14.70
34768;DHT22;21755;43.608;1.236;2023-07-13T13:15:32;25.90;38.40
34768;DHT22;21755;43.608;1.236;2023-07-13T13:17:58;26.30;44.50
34768;DHT22;21755;43.608;1.236;2023-07-13T13:20:25;26.50;18.10
34768;DHT22;21755;43.608;1.236;2023-07-13T13:22:53;26.50;1.00
34768;DHT22;21755;43.608;1.236;2023-07-13T13:25:20;26.50;13.80
34768;DHT22;21755;43.608;1.236;2023-07-13T13:27:48;26.40;1.00
34768;DHT22;21755;43.608;1.236;2023-07-13T13:30:16;26.30;9.60
34768;DHT22;21755;43.608;1.236;2023-07-13T13:32:45;26.40;1.00
34768;DHT22;21755;43.608;1.236;2023-07-13T13:35:15;26.50;1.00
34768;DHT22;21755;43.608;1.236;2023-07-13T13:37:42;26.70;2.50
34768;DHT22;21755;43.608;1.236;2023-07-13T13:40:17;26.90;1.00
34768;DHT22;21755;43.608;1.236;2023-07-13T13:42:43;26.70;1.00
34768;DHT22;21755;43.608;1.236;2023-07-13T13:45:10;26.70;1.00
34768;DHT22;21755;43.608;1.236;2023-07-13T13:47:36;26.50;1.00
34768;DHT22;21755;43.608;1.236;2023-07-13T13:50:15;26.80;1.00
34768;DHT22;21755;43.608;1.236;2023-07-13T13:52:42;26.60;1.00
34768;DHT22;21755;43.608;1.236;2023-07-13T13:55:19;27.00;1.00
34768;DHT22;21755;43.608;1.236;2023-07-13T13:57:46;27.40;1.00
34768;DHT22;21755;43.608;1.236;2023-07-13T14:00:14;27.00;1.00
34768;DHT22;21755;43.608;1.236;2023-07-13T14:02:47;26.80;1.00
34768;DHT22;21755;43.608;1.236;2023-07-13T14:05:17;26.60;1.00
34768;DHT22;21755;43.608;1.236;2023-07-13T14:07:45;26.60;1.00
34768;DHT22;21755;43.608;1.236;2023-07-13T14:10:17;26.50;1.00
34768;DHT22;21755;43.608;1.236;2023-07-13T14:12:45;26.20;1.00
34768;DHT22;21755;43.608;1.236;2023-07-13T14:15:26;26.30;1.00
34768;DHT22;21755;43.608;1.236;2023-07-13T14:17:53;26.50;1.00
34768;DHT22;21755;43.608;1.236;2023-07-13T14:20:21;26.80;1.00
34768;DHT22;21755;43.608;1.236;2023-07-13T14:22:50;26.60;1.00
34768;DHT22;21755;43.608;1.236;2023-07-13T14:25:17;26.40;1.00
34768;DHT22;21755;43.608;1.236;2023-07-13T14:27:45;26.10;1.00
34768;DHT22;21755;43.608;1.236;2023-07-13T14:30:16;26.40;1.00
34768;DHT22;21755;43.608;1.236;2023-07-13T14:32:42;26.40;1.00
34768;DHT22;21755;43.608;1.236;2023-07-13T14:35:18;27.20;1.00
34768;DHT22;21755;43.608;1.236;2023-07-13T14:37:46;27.50;1.00
34768;DHT22;21755;43.608;1.236;2023-07-13T14:40:30;27.80;1.00
34768;DHT22;21755;43.608;1.236;2023-07-13T14:42:57;28.20;1.00
34768;DHT22;21755;43.608;1.236;2023-07-13T14:45:24;28.30;1.00
34768;DHT22;21755;43.608;1.236;2023-07-13T14:47:51;28.30;1.00
34768;DHT22;21755;43.608;1.236;2023-07-13T14:50:27;28.00;1.00
34768;DHT22;21755;43.608;1.236;2023-07-13T14:52:54;28.10;1.00
34768;DHT22;21755;43.608;1.236;2023-07-13T14:55:20;28.00;1.00
34768;DHT22;21755;43.608;1.236;2023-07-13T14:57:47;28.10;1.00
34768;DHT22;21755;43.608;1.236;2023-07-13T15:00:15;27.70;1.00
34768;DHT22;21755;43.608;1.236;2023-07-13T15:02:43;27.10;1.00
34768;DHT22;21755;43.608;1.236;2023-07-13T15:05:17;26.80;1.00
34768;DHT22;21755;43.608;1.236;2023-07-13T15:07:43;26.70;1.00
34768;DHT22;21755;43.608;1.236;2023-07-13T15:10:24;26.70;1.00
34768;DHT22;21755;43.608;1.236;2023-07-13T15:12:59;26.50;1.00
34768;DHT22;21755;43.608;1.236;2023-07-13T15:15:28;26.40;1.00
34768;DHT22;21755;43.608;1.236;2023-07-13T15:17:54;26.40;1.00
34768;DHT22;21755;43.608;1.236;2023-07-13T15:20:34;26.30;1.00
34768;DHT22;21755;43.608;1.236;2023-07-13T15:23:01;26.70;1.00
34768;DHT22;21755;43.608;1.236;2023-07-13T15:25:29;27.20;1.00
34768;DHT22;21755;43.608;1.236;2023-07-13T15:27:57;27.30;1.00
34768;DHT22;21755;43.608;1.236;2023-07-13T15:30:26;27.50;1.00
34768;DHT22;21755;43.608;1.236;2023-07-13T15:32:52;27.60;1.00
34768;DHT22;21755;43.608;1.236;2023-07-13T15:35:21;27.80;1.00
34768;DHT22;21755;43.608;1.236;2023-07-13T15:37:52;27.80;1.00
34768;DHT22;21755;43.608;1.236;2023-07-13T15:40:19;27.90;99.90
34768;DHT22;21755;43.608;1.236;2023-07-13T15:42:47;27.90;99.90
34768;DHT22;21755;43.608;1.236;2023-07-13T15:45:21;28.20;1.00
34768;DHT22;21755;43.608;1.236;2023-07-13T15:47:49;28.30;1.00
34768;DHT22;21755;43.608;1.236;2023-07-13T15:50:23;28.10;1.00
34768;DHT22;21755;43.608;1.236;2023-07-13T15:52:52;27.80;99.90
34768;DHT22;21755;43.608;1.236;2023-07-13T15:55:18;28.10;99.90
34768;DHT22;21755;43.608;1.236;2023-07-13T15:57:51;28.30;99.90
34768;DHT22;21755;43.608;1.236;2023-07-13T16:02:47;27.80;99.90
34768;DHT22;21755;43.608;1.236;2023-07-13T16:05:14;27.80;99.90
34768;DHT22;21755;43.608;1.236;2023-07-13T16:07:43;28.00;99.90
34768;DHT22;21755;43.608;1.236;2023-07-13T16:10:14;28.20;99.90
34768;DHT22;21755;43.608;1.236;2023-07-13T16:12:41;28.20;99.90
34768;DHT22;21755;43.608;1.236;2023-07-13T16:15:17;28.40;99.90
34768;DHT22;21755;43.608;1.236;2023-07-13T16:17:45;28.20;99.90
34768;DHT22;21755;43.608;1.236;2023-07-13T16:20:12;27.70;99.90
34768;DHT22;21755;43.608;1.236;2023-07-13T16:22:40;27.30;99.90
34768;DHT22;21755;43.608;1.236;2023-07-13T16:25:21;27.20;99.90
34768;DHT22;21755;43.608;1.236;2023-07-13T16:27:50;27.00;99.90